Back to Top

Language: 

My Weather Underground Personal Weather Station Historical Data with Graphs...

Delerius Weather Station Historical Data
Daily Summary for April 11, 2017 Units:  Metric    English   Both
« Previous Day
Next Day »
Daily Weekly Monthly Yearly Custom
  High: Low: Average:
Temperature: 14.3 °C 4.4 °C 9.3 °C
Dew Point: 6.4 °C 2.5 °C 4.8 °C
Humidity: 89 % 54 % 74 %
Wind Speed: 27.4 km/h 0 km/h 15.1 km/h
Wind Gust: 45.1 km/h - -
Wind:- - West
Pressure: 1027 hPa 1019.9 hPa -
Precipitation: 0 mm    
Historical Graphs
 
 
Tabular Data for April 11, 2017
Time Temperature Dew Point Pressure Wind Wind Speed Wind Gust Humidity Rainfall Rate (Hourly) solar Conditions
00:04 7.1 °C 3.5 °C 1026.6 hPa WNW 14.5 km/h 24.1 km/h 78 % 0 mm 0 W/m2
00:10 7.1 °C 3.5 °C 1026.6 hPa WNW 11.3 km/h 20.9 km/h 78 % 0 mm 0 W/m2
00:15 6.9 °C 3.5 °C 1026.6 hPa WNW 11.3 km/h 19.3 km/h 79 % 0 mm 0 W/m2
00:20 6.8 °C 3.4 °C 1026.6 hPa WNW 9.7 km/h 19.3 km/h 79 % 0 mm 0 W/m2
00:25 6.8 °C 3.4 °C 1027 hPa WNW 9.7 km/h 17.7 km/h 79 % 0 mm 0 W/m2
00:30 6.7 °C 3.5 °C 1027 hPa WNW 9.7 km/h 17.7 km/h 80 % 0 mm 0 W/m2
00:35 6.6 °C 3.4 °C 1027 hPa WNW 11.3 km/h 17.7 km/h 80 % 0 mm 0 W/m2
00:40 6.6 °C 3.4 °C 1027 hPa WNW 11.3 km/h 17.7 km/h 80 % 0 mm 0 W/m2
00:45 6.6 °C 3.6 °C 1026.6 hPa WNW 9.7 km/h 16.1 km/h 81 % 0 mm 0 W/m2
00:50 6.5 °C 3.5 °C 1026.6 hPa WNW 9.7 km/h 16.1 km/h 81 % 0 mm 0 W/m2
00:55 6.4 °C 3.6 °C 1026.6 hPa WNW 9.7 km/h 16.1 km/h 82 % 0 mm 0 W/m2
01:00 6.4 °C 3.6 °C 1026.6 hPa WNW 9.7 km/h 19.3 km/h 82 % 0 mm 0 W/m2
01:05 6.4 °C 3.6 °C 1026.6 hPa WNW 9.7 km/h 19.3 km/h 82 % 0 mm 0 W/m2
01:10 6.4 °C 3.7 °C 1026.6 hPa WNW 9.7 km/h 17.7 km/h 83 % 0 mm 0 W/m2
01:15 6.3 °C 3.6 °C 1026.6 hPa WNW 8 km/h 17.7 km/h 83 % 0 mm 0 W/m2
01:20 6.3 °C 3.6 °C 1027 hPa WNW 8 km/h 14.5 km/h 83 % 0 mm 0 W/m2
01:25 6.3 °C 3.6 °C 1026.6 hPa WNW 11.3 km/h 22.5 km/h 83 % 0 mm 0 W/m2
01:30 6.3 °C 3.6 °C 1026.6 hPa WNW 12.9 km/h 22.5 km/h 83 % 0 mm 0 W/m2
01:35 6.3 °C 3.6 °C 1026.6 hPa WNW 11.3 km/h 19.3 km/h 83 % 0 mm 0 W/m2
01:40 6.3 °C 3.6 °C 1026.6 hPa WNW 11.3 km/h 17.7 km/h 83 % 0 mm 0 W/m2
01:45 6.3 °C 3.8 °C 1026.6 hPa WNW 12.9 km/h 24.1 km/h 84 % 0 mm 0 W/m2
01:50 6.4 °C 3.7 °C 1027 hPa WNW 14.5 km/h 24.1 km/h 83 % 0 mm 0 W/m2
01:55 6.5 °C 3.8 °C 1027 hPa WNW 12.9 km/h 22.5 km/h 83 % 0 mm 0 W/m2
02:00 6.5 °C 3.8 °C 1027 hPa WNW 9.7 km/h 17.7 km/h 83 % 0 mm 0 W/m2
02:05 6.5 °C 3.8 °C 1026.6 hPa WNW 9.7 km/h 14.5 km/h 83 % 0 mm 0 W/m2
02:10 6.5 °C 3.8 °C 1026.6 hPa WNW 9.7 km/h 17.7 km/h 83 % 0 mm 0 W/m2
02:15 6.5 °C 3.8 °C 1026.6 hPa WNW 11.3 km/h 17.7 km/h 83 % 0 mm 0 W/m2
02:20 6.4 °C 3.7 °C 1026.6 hPa WNW 9.7 km/h 17.7 km/h 83 % 0 mm 0 W/m2
02:25 6.4 °C 3.7 °C 1026.6 hPa WNW 9.7 km/h 17.7 km/h 83 % 0 mm 0 W/m2
02:30 6.4 °C 3.7 °C 1026.6 hPa WNW 6.4 km/h 17.7 km/h 83 % 0 mm 0 W/m2
02:35 6.3 °C 3.6 °C 1026.6 hPa NW 6.4 km/h 14.5 km/h 83 % 0 mm 0 W/m2
02:40 6.3 °C 3.6 °C 1026.6 hPa NW 8 km/h 14.5 km/h 83 % 0 mm 0 W/m2
02:45 6.2 °C 3.5 °C 1026.6 hPa WNW 9.7 km/h 14.5 km/h 83 % 0 mm 0 W/m2
02:50 6.1 °C 3.4 °C 1026.6 hPa WNW 11.3 km/h 20.9 km/h 83 % 0 mm 0 W/m2
02:55 6.1 °C 3.4 °C 1026.6 hPa WNW 14.5 km/h 22.5 km/h 83 % 0 mm 0 W/m2
03:00 6.1 °C 3.4 °C 1026.6 hPa WNW 14.5 km/h 22.5 km/h 83 % 0 mm 0 W/m2
03:05 6.1 °C 3.4 °C 1026.6 hPa WNW 14.5 km/h 20.9 km/h 83 % 0 mm 0 W/m2
03:10 6 °C 3.3 °C 1026.6 hPa WNW 11.3 km/h 20.9 km/h 83 % 0 mm 0 W/m2
03:16 5.9 °C 3.2 °C 1026.6 hPa West 9.7 km/h 17.7 km/h 83 % 0 mm 0 W/m2
03:21 5.9 °C 3.2 °C 1026.6 hPa West 6.4 km/h 12.9 km/h 83 % 0 mm 0 W/m2
03:26 5.8 °C 3.1 °C 1026.3 hPa West 6.4 km/h 11.3 km/h 83 % 0 mm 0 W/m2
03:31 5.7 °C 3.2 °C 1026.6 hPa West 4.8 km/h 11.3 km/h 84 % 0 mm 0 W/m2
03:36 5.6 °C 3.1 °C 1026.6 hPa West 4.8 km/h 9.7 km/h 84 % 0 mm 0 W/m2
03:41 5.6 °C 3.1 °C 1026.6 hPa West 4.8 km/h 14.5 km/h 84 % 0 mm 0 W/m2
03:46 5.6 °C 3.1 °C 1026.6 hPa West 6.4 km/h 16.1 km/h 84 % 0 mm 0 W/m2
03:51 5.6 °C 3.1 °C 1026.6 hPa West 6.4 km/h 16.1 km/h 84 % 0 mm 0 W/m2
03:56 5.5 °C 3 °C 1026.6 hPa West 4.8 km/h 11.3 km/h 84 % 0 mm 0 W/m2
04:01 5.4 °C 2.9 °C 1026.6 hPa West 4.8 km/h 11.3 km/h 84 % 0 mm 0 W/m2
04:06 5.4 °C 2.9 °C 1026.6 hPa West 4.8 km/h 11.3 km/h 84 % 0 mm 0 W/m2
04:11 5.4 °C 3.1 °C 1026.6 hPa WNW 6.4 km/h 12.9 km/h 85 % 0 mm 0 W/m2
04:16 5.4 °C 3.1 °C 1026.6 hPa WNW 8 km/h 17.7 km/h 85 % 0 mm 0 W/m2
04:21 5.4 °C 3.1 °C 1026.6 hPa WNW 9.7 km/h 17.7 km/h 85 % 0 mm 0 W/m2
04:26 5.4 °C 3.1 °C 1026.6 hPa WNW 8 km/h 16.1 km/h 85 % 0 mm 0 W/m2
04:31 5.4 °C 3.1 °C 1026.6 hPa WNW 8 km/h 16.1 km/h 85 % 0 mm 0 W/m2
04:36 5.4 °C 3.1 °C 1026.6 hPa WNW 11.3 km/h 19.3 km/h 85 % 0 mm 0 W/m2
04:41 5.5 °C 3.2 °C 1026.6 hPa WNW 11.3 km/h 19.3 km/h 85 % 0 mm 0 W/m2
04:46 5.4 °C 3.1 °C 1026.3 hPa WNW 11.3 km/h 16.1 km/h 85 % 0 mm 0 W/m2
04:51 5.4 °C 3.1 °C 1026.6 hPa WNW 11.3 km/h 19.3 km/h 85 % 0 mm 0 W/m2
04:56 5.4 °C 3.1 °C 1026.6 hPa WNW 12.9 km/h 19.3 km/h 85 % 0 mm 0 W/m2
05:01 5.4 °C 3.1 °C 1026.6 hPa WNW 11.3 km/h 19.3 km/h 85 % 0 mm 0 W/m2
05:06 5.3 °C 3 °C 1026.6 hPa WNW 9.7 km/h 16.1 km/h 85 % 0 mm 0 W/m2
05:11 5.3 °C 3 °C 1026.6 hPa WNW 9.7 km/h 14.5 km/h 85 % 0 mm 0 W/m2
05:16 5.3 °C 3 °C 1026.3 hPa WNW 9.7 km/h 14.5 km/h 85 % 0 mm 0 W/m2
05:21 5.2 °C 2.9 °C 1026.3 hPa WNW 11.3 km/h 20.9 km/h 85 % 0 mm 0 W/m2
05:26 5.2 °C 3.1 °C 1026.6 hPa WNW 14.5 km/h 20.9 km/h 86 % 0 mm 0 W/m2
05:31 5.2 °C 3.1 °C 1026.6 hPa WNW 12.9 km/h 19.3 km/h 86 % 0 mm 0 W/m2
05:36 5.2 °C 3.1 °C 1026.6 hPa WNW 9.7 km/h 17.7 km/h 86 % 0 mm 0 W/m2
05:41 5.2 °C 3.1 °C 1026.6 hPa WNW 8 km/h 12.9 km/h 86 % 0 mm 0 W/m2
05:46 5.1 °C 2.9 °C 1026.6 hPa WNW 4.8 km/h 9.7 km/h 86 % 0 mm 0 W/m2
05:51 5.1 °C 2.9 °C 1026.6 hPa WNW 1.6 km/h 6.4 km/h 86 % 0 mm 0 W/m2
05:56 5.1 °C 2.9 °C 1026.6 hPa Calm     86 % 0 mm 0 W/m2
06:01 5.1 °C 2.9 °C 1026.6 hPa Calm     86 % 0 mm 0 W/m2
06:06 4.9 °C 2.8 °C 1026.6 hPa Calm     86 % 0 mm 0 W/m2
06:11 4.8 °C 2.7 °C 1026.6 hPa Calm     86 % 0 mm 7 W/m2
06:16 4.7 °C 2.6 °C 1026.6 hPa Calm     86 % 0 mm 9 W/m2
06:21 4.6 °C 2.6 °C 1026.6 hPa Calm     87 % 0 mm 11 W/m2
06:26 4.5 °C 2.5 °C 1026.6 hPa WNW 1.6 km/h 6.4 km/h 87 % 0 mm 16 W/m2
06:31 4.4 °C 2.6 °C 1026.6 hPa WNW 3.2 km/h 8 km/h 88 % 0 mm 25 W/m2
06:36 4.6 °C 2.9 °C 1026.6 hPa WNW 4.8 km/h 11.3 km/h 89 % 0 mm 32 W/m2
06:41 4.7 °C 3.1 °C 1026.6 hPa WNW 3.2 km/h 11.3 km/h 89 % 0 mm 33 W/m2
06:47 4.8 °C 3.2 °C 1027 hPa Calm   8 km/h 89 % 0 mm 40 W/m2
06:52 4.9 °C 3.2 °C 1027 hPa Calm     89 % 0 mm 53 W/m2
06:57 5.1 °C 3.4 °C 1026.6 hPa Calm   1.6 km/h 89 % 0 mm 44 W/m2
07:02 5.2 °C 3.6 °C 1026.6 hPa Calm   1.6 km/h 89 % 0 mm 51 W/m2
07:07 5.3 °C 3.6 °C 1026.6 hPa Calm     89 % 0 mm 74 W/m2
07:12 5.4 °C 3.7 °C 1026.6 hPa Calm     89 % 0 mm 69 W/m2
07:17 5.6 °C 3.9 °C 1026.3 hPa Calm   3.2 km/h 89 % 0 mm 67 W/m2
07:22 5.8 °C 3.9 °C 1026.3 hPa Calm   6.4 km/h 88 % 0 mm 70 W/m2
07:27 6 °C 4.2 °C 1026.3 hPa West 1.6 km/h 6.4 km/h 88 % 0 mm 76 W/m2
07:32 6.2 °C 4.2 °C 1026.6 hPa West 1.6 km/h 8 km/h 87 % 0 mm 88 W/m2
07:37 6.3 °C 4.3 °C 1026.3 hPa WSW 1.6 km/h 8 km/h 87 % 0 mm 97 W/m2
07:42 6.4 °C 4.2 °C 1026.3 hPa West 1.6 km/h 9.7 km/h 86 % 0 mm 111 W/m2
07:47 6.6 °C 4.4 °C 1026.3 hPa West 3.2 km/h 9.7 km/h 86 % 0 mm 113 W/m2
07:52 6.9 °C 4.7 °C 1026.3 hPa West 8 km/h 19.3 km/h 86 % 0 mm 113 W/m2
07:57 7.2 °C 4.8 °C 1026.3 hPa West 11.3 km/h 19.3 km/h 85 % 0 mm 121 W/m2
08:02 7.3 °C 4.8 °C 1026.3 hPa West 11.3 km/h 20.9 km/h 84 % 0 mm 141 W/m2
08:07 7.5 °C 4.8 °C 1026.3 hPa West 11.3 km/h 20.9 km/h 83 % 0 mm 158 W/m2
08:12 7.7 °C 5 °C 1026.6 hPa West 9.7 km/h 19.3 km/h 83 % 0 mm 250 W/m2
08:17 7.9 °C 5.2 °C 1026.3 hPa West 4.8 km/h 14.5 km/h 83 % 0 mm 169 W/m2
08:22 8.1 °C 5.2 °C 1026.3 hPa West 4.8 km/h 16.1 km/h 82 % 0 mm 181 W/m2
08:27 8.3 °C 5.4 °C 1026.3 hPa West 9.7 km/h 20.9 km/h 82 % 0 mm 239 W/m2
08:32 8.5 °C 5.6 °C 1026.3 hPa West 11.3 km/h 20.9 km/h 82 % 0 mm 179 W/m2
08:37 8.7 °C 5.6 °C 1026.3 hPa West 12.9 km/h 29 km/h 81 % 0 mm 153 W/m2
08:42 8.7 °C 5.4 °C 1026.3 hPa WNW 16.1 km/h 30.6 km/h 80 % 0 mm 144 W/m2
08:47 8.7 °C 5.3 °C 1026.6 hPa WNW 17.7 km/h 30.6 km/h 79 % 0 mm 128 W/m2
08:52 8.7 °C 5.1 °C 1026.6 hPa WNW 17.7 km/h 33.8 km/h 78 % 0 mm 232 W/m2
08:57 8.8 °C 5.2 °C 1026.6 hPa WNW 17.7 km/h 33.8 km/h 78 % 0 mm 186 W/m2
09:02 8.9 °C 5.3 °C 1026.6 hPa WNW 17.7 km/h 30.6 km/h 78 % 0 mm 258 W/m2
09:07 9 °C 5.4 °C 1026.6 hPa West 16.1 km/h 30.6 km/h 78 % 0 mm 279 W/m2
09:12 9.1 °C 5.3 °C 1026.6 hPa West 17.7 km/h 33.8 km/h 77 % 0 mm 478 W/m2
09:17 9.3 °C 5.4 °C 1026.3 hPa West 19.3 km/h 33.8 km/h 77 % 0 mm 299 W/m2
09:22 9.4 °C 5.4 °C 1026.3 hPa West 19.3 km/h 32.2 km/h 76 % 0 mm 411 W/m2
09:27 9.6 °C 5.4 °C 1026.6 hPa West 19.3 km/h 33.8 km/h 75 % 0 mm 257 W/m2
09:32 9.7 °C 5.3 °C 1026.3 hPa West 20.9 km/h 33.8 km/h 74 % 0 mm 429 W/m2
09:37 9.7 °C 5.3 °C 1026.3 hPa West 20.9 km/h 33.8 km/h 74 % 0 mm 362 W/m2
09:42 9.8 °C 5.4 °C 1026.3 hPa West 17.7 km/h 32.2 km/h 74 % 0 mm 343 W/m2
09:47 10.1 °C 5.7 °C 1026.6 hPa West 16.1 km/h 33.8 km/h 74 % 0 mm 647 W/m2
09:53 10.4 °C 5.8 °C 1026.3 hPa West 16.1 km/h 33.8 km/h 73 % 0 mm 211 W/m2
09:58 10.3 °C 5.3 °C 1026.3 hPa West 17.7 km/h 29 km/h 71 % 0 mm 311 W/m2
10:03 10.3 °C 5.4 °C 1026.3 hPa West 19.3 km/h 32.2 km/h 72 % 0 mm 257 W/m2
10:08 10.3 °C 5.4 °C 1026.3 hPa West 22.5 km/h 38.6 km/h 72 % 0 mm 452 W/m2
10:13 10.3 °C 5.4 °C 1026.3 hPa West 22.5 km/h 38.6 km/h 72 % 0 mm 327 W/m2
10:18 10.4 °C 5.6 °C 1026.3 hPa West 20.9 km/h 32.2 km/h 72 % 0 mm 281 W/m2
10:23 10.5 °C 5.4 °C 1026.3 hPa West 19.3 km/h 33.8 km/h 71 % 0 mm 406 W/m2
10:28 10.6 °C 5.6 °C 1026.3 hPa West 19.3 km/h 37 km/h 71 % 0 mm 555 W/m2
10:33 10.6 °C 5.3 °C 1026.6 hPa WNW 19.3 km/h 37 km/h 70 % 0 mm 285 W/m2
10:38 10.7 °C 5.7 °C 1026.3 hPa WNW 14.5 km/h 29 km/h 71 % 0 mm 239 W/m2
10:43 10.7 °C 5.7 °C 1026.6 hPa West 14.5 km/h 32.2 km/h 71 % 0 mm 229 W/m2
10:48 10.7 °C 5.4 °C 1026.6 hPa West 17.7 km/h 32.2 km/h 70 % 0 mm 176 W/m2
10:53 10.6 °C 5.6 °C 1026.3 hPa WNW 19.3 km/h 30.6 km/h 71 % 0 mm 239 W/m2
10:58 10.6 °C 5.6 °C 1026.3 hPa WNW 16.1 km/h 30.6 km/h 71 % 0 mm 383 W/m2
11:03 10.9 °C 5.8 °C 1026.3 hPa WNW 16.1 km/h 33.8 km/h 71 % 0 mm 473 W/m2
11:08 11.4 °C 6.1 °C 1026.3 hPa WNW 19.3 km/h 38.6 km/h 70 % 0 mm 422 W/m2
11:13 11.6 °C 5.9 °C 1026.3 hPa WNW 20.9 km/h 38.6 km/h 68 % 0 mm 336 W/m2
11:18 11.4 °C 5.7 °C 1026 hPa West 20.9 km/h 35.4 km/h 68 % 0 mm 257 W/m2
11:23 11.5 °C 6 °C 1026 hPa West 17.7 km/h 35.4 km/h 69 % 0 mm 533 W/m2
11:28 11.6 °C 6.1 °C 1026 hPa West 16.1 km/h 30.6 km/h 69 % 0 mm 531 W/m2
11:33 11.7 °C 5.8 °C 1026 hPa West 19.3 km/h 33.8 km/h 67 % 0 mm 461 W/m2
11:38 11.9 °C 5.9 °C 1026 hPa West 20.9 km/h 38.6 km/h 67 % 0 mm 330 W/m2
11:43 11.9 °C 5.9 °C 1026 hPa WNW 22.5 km/h 38.6 km/h 67 % 0 mm 322 W/m2
11:48 11.9 °C 5.9 °C 1026 hPa WNW 22.5 km/h 37 km/h 67 % 0 mm 225 W/m2
11:53 11.8 °C 6.1 °C 1026 hPa WNW 19.3 km/h 35.4 km/h 68 % 0 mm 323 W/m2
11:58 11.8 °C 5.9 °C 1026 hPa WNW 17.7 km/h 32.2 km/h 67 % 0 mm 399 W/m2
12:03 11.7 °C 5.8 °C 1025.6 hPa WNW 20.9 km/h 38.6 km/h 67 % 0 mm 341 W/m2
12:08 11.7 °C 5.8 °C 1025.6 hPa West 22.5 km/h 38.6 km/h 67 % 0 mm 383 W/m2
12:13 11.7 °C 5.8 °C 1025.6 hPa West 24.1 km/h 41.8 km/h 67 % 0 mm 250 W/m2
12:18 11.4 °C 5.5 °C 1025.6 hPa West 25.7 km/h 41.8 km/h 67 % 0 mm 251 W/m2
12:23 11.3 °C 5.6 °C 1025.3 hPa West 22.5 km/h 41.8 km/h 68 % 0 mm 218 W/m2
12:28 11.2 °C 5.7 °C 1025.3 hPa West 17.7 km/h 32.2 km/h 69 % 0 mm 181 W/m2
12:33 11.2 °C 5.7 °C 1025.3 hPa West 19.3 km/h 33.8 km/h 69 % 0 mm 156 W/m2
12:38 11.1 °C 5.6 °C 1025.3 hPa West 17.7 km/h 33.8 km/h 69 % 0 mm 158 W/m2
12:43 11.1 °C 5.8 °C 1025.3 hPa West 17.7 km/h 29 km/h 70 % 0 mm 197 W/m2
12:48 11.1 °C 5.8 °C 1025.3 hPa West 17.7 km/h 29 km/h 70 % 0 mm 181 W/m2
12:53 10.9 °C 5.7 °C 1025.3 hPa West 17.7 km/h 30.6 km/h 70 % 0 mm 186 W/m2
12:58 10.9 °C 5.7 °C 1024.9 hPa West 16.1 km/h 30.6 km/h 70 % 0 mm 183 W/m2
13:04 11.1 °C 5.8 °C 1024.9 hPa West 16.1 km/h 29 km/h 70 % 0 mm 185 W/m2
13:09 11.2 °C 5.9 °C 1024.9 hPa West 14.5 km/h 25.7 km/h 70 % 0 mm 202 W/m2
13:14 11.3 °C 5.8 °C 1024.9 hPa West 14.5 km/h 30.6 km/h 69 % 0 mm 220 W/m2
13:19 11.5 °C 6 °C 1024.9 hPa West 19.3 km/h 37 km/h 69 % 0 mm 281 W/m2
13:24 11.7 °C 6.2 °C 1024.6 hPa WNW 20.9 km/h 37 km/h 69 % 0 mm 341 W/m2
13:29 12 °C 6.3 °C 1024.6 hPa WNW 20.9 km/h 41.8 km/h 68 % 0 mm 436 W/m2
13:34 12.3 °C 6.1 °C 1024.6 hPa West 25.7 km/h 41.8 km/h 66 % 0 mm 919 W/m2
13:39 12.7 °C 6.1 °C 1024.6 hPa West 24.1 km/h 40.2 km/h 64 % 0 mm 650 W/m2
13:44 13 °C 6.1 °C 1024.6 hPa West 22.5 km/h 41.8 km/h 63 % 0 mm 302 W/m2
13:49 12.8 °C 5.4 °C 1024.6 hPa WNW 25.7 km/h 43.5 km/h 61 % 0 mm 436 W/m2
13:54 12.9 °C 5.8 °C 1024.6 hPa WNW 25.7 km/h 43.5 km/h 62 % 0 mm 512 W/m2
13:59 13.1 °C 6 °C 1024.6 hPa WNW 24.1 km/h 38.6 km/h 62 % 0 mm 353 W/m2
14:04 13.3 °C 6.2 °C 1024.6 hPa West 19.3 km/h 35.4 km/h 62 % 0 mm 459 W/m2
14:09 13.7 °C 6.1 °C 1024.6 hPa West 17.7 km/h 33.8 km/h 60 % 0 mm 960 W/m2
14:13 13.8 °C 5.9 °C 1024.6 hPa West 19.3 km/h 35.4 km/h 59 % 0 mm 657 W/m2
14:18 13.8 °C 5.9 °C 1024.6 hPa West 22.5 km/h 35.4 km/h 59 % 0 mm 383 W/m2
14:23 13.8 °C 6.2 °C 1024.6 hPa WNW 22.5 km/h 41.8 km/h 60 % 0 mm 664 W/m2
14:28 14 °C 6.3 °C 1024.3 hPa WNW 20.9 km/h 41.8 km/h 60 % 0 mm 784 W/m2
14:33 14.3 °C 6.4 °C 1024.6 hPa WNW 19.3 km/h 32.2 km/h 59 % 0 mm 561 W/m2
14:38 14.2 °C 5.8 °C 1024.3 hPa WNW 20.9 km/h 40.2 km/h 57 % 0 mm 577 W/m2
14:43 14.1 °C 5.7 °C 1024.3 hPa WNW 24.1 km/h 41.8 km/h 57 % 0 mm 798 W/m2
14:48 14.3 °C 5.6 °C 1024.3 hPa WNW 24.1 km/h 41.8 km/h 56 % 0 mm 700 W/m2
14:53 14.3 °C 5.1 °C 1024.3 hPa West 24.1 km/h 43.5 km/h 54 % 0 mm 661 W/m2
14:58 14.3 °C 5.4 °C 1024.3 hPa West 24.1 km/h 43.5 km/h 55 % 0 mm 596 W/m2
15:03 14.3 °C 5.6 °C 1024.3 hPa West 22.5 km/h 41.8 km/h 56 % 0 mm 359 W/m2
15:08 14.1 °C 5.4 °C 1024.3 hPa WNW 24.1 km/h 41.8 km/h 56 % 0 mm 613 W/m2
15:13 14 °C 5.3 °C 1024.3 hPa WNW 22.5 km/h 41.8 km/h 56 % 0 mm 490 W/m2
15:18 13.9 °C 5.5 °C 1024.3 hPa WNW 20.9 km/h 37 km/h 57 % 0 mm 425 W/m2
15:23 13.6 °C 5.2 °C 1024.3 hPa WNW 20.9 km/h 35.4 km/h 57 % 0 mm 424 W/m2
15:28 13.3 °C 5.2 °C 1024.3 hPa WNW 25.7 km/h 45.1 km/h 58 % 0 mm 396 W/m2
15:33 12.9 °C 5.1 °C 1024.3 hPa WNW 25.7 km/h 45.1 km/h 59 % 0 mm 311 W/m2
15:38 12.7 °C 5.4 °C 1024.3 hPa WNW 24.1 km/h 45.1 km/h 61 % 0 mm 350 W/m2
15:43 12.7 °C 5.4 °C 1024.3 hPa WNW 24.1 km/h 45.1 km/h 61 % 0 mm 494 W/m2
15:48 12.8 °C 5.4 °C 1023.9 hPa WNW 25.7 km/h 43.5 km/h 61 % 0 mm 482 W/m2
15:53 12.9 °C 5.6 °C 1023.9 hPa WNW 24.1 km/h 43.5 km/h 61 % 0 mm 390 W/m2
15:58 12.9 °C 5.6 °C 1023.9 hPa WNW 22.5 km/h 40.2 km/h 61 % 0 mm 478 W/m2
16:03 12.9 °C 5.6 °C 1023.9 hPa West 24.1 km/h 40.2 km/h 61 % 0 mm 401 W/m2
16:08 12.7 °C 5.6 °C 1023.6 hPa West 24.1 km/h 40.2 km/h 62 % 0 mm 541 W/m2
16:13 12.9 °C 5.6 °C 1023.6 hPa WNW 25.7 km/h 43.5 km/h 61 % 0 mm 529 W/m2
16:18 12.9 °C 5.6 °C 1023.6 hPa West 27.4 km/h 43.5 km/h 61 % 0 mm 520 W/m2
16:23 12.8 °C 5.4 °C 1023.2 hPa West 27.4 km/h 41.8 km/h 61 % 0 mm 323 W/m2
16:28 12.8 °C 5.7 °C 1023.2 hPa West 22.5 km/h 41.8 km/h 62 % 0 mm 251 W/m2
16:33 12.6 °C 5.3 °C 1023.2 hPa West 20.9 km/h 37 km/h 61 % 0 mm 192 W/m2
16:38 12.6 °C 5.5 °C 1023.2 hPa West 22.5 km/h 40.2 km/h 62 % 0 mm 183 W/m2
16:43 12.6 °C 5.5 °C 1023.2 hPa West 19.3 km/h 40.2 km/h 62 % 0 mm 185 W/m2
16:48 12.5 °C 5.7 °C 1023.2 hPa West 19.3 km/h 35.4 km/h 63 % 0 mm 188 W/m2
16:53 12.4 °C 5.3 °C 1023.2 hPa WNW 20.9 km/h 37 km/h 62 % 0 mm 199 W/m2
16:58 12.3 °C 5.2 °C 1023.2 hPa WNW 22.5 km/h 37 km/h 62 % 0 mm 162 W/m2
17:03 12.1 °C 5.3 °C 1023.2 hPa WNW 20.9 km/h 37 km/h 63 % 0 mm 172 W/m2
17:08 11.9 °C 5.3 °C 1023.2 hPa WNW 20.9 km/h 37 km/h 64 % 0 mm 160 W/m2
17:13 11.9 °C 5.3 °C 1023.2 hPa WNW 19.3 km/h 35.4 km/h 64 % 0 mm 167 W/m2
17:18 11.9 °C 5.5 °C 1022.9 hPa West 17.7 km/h 33.8 km/h 65 % 0 mm 265 W/m2
17:23 12.1 °C 5.5 °C 1022.9 hPa West 19.3 km/h 35.4 km/h 64 % 0 mm 334 W/m2
17:28 12.3 °C 5.4 °C 1022.9 hPa West 20.9 km/h 35.4 km/h 63 % 0 mm 272 W/m2
17:33 12.3 °C 5.2 °C 1022.6 hPa West 22.5 km/h 37 km/h 62 % 0 mm 216 W/m2
17:38 12.2 °C 5.3 °C 1022.6 hPa West 22.5 km/h 37 km/h 63 % 0 mm 179 W/m2
17:43 12.2 °C 5.3 °C 1022.6 hPa West 22.5 km/h 38.6 km/h 63 % 0 mm 185 W/m2
17:48 12.1 °C 5.1 °C 1022.6 hPa West 24.1 km/h 40.2 km/h 62 % 0 mm 137 W/m2
17:53 12 °C 4.9 °C 1022.6 hPa West 24.1 km/h 40.2 km/h 62 % 0 mm 127 W/m2
17:58 11.8 °C 5 °C 1022.2 hPa West 24.1 km/h 38.6 km/h 63 % 0 mm 162 W/m2
18:03 11.7 °C 4.9 °C 1022.2 hPa West 27.4 km/h 41.8 km/h 63 % 0 mm 113 W/m2
18:08 11.6 °C 5 °C 1022.2 hPa West 27.4 km/h 41.8 km/h 64 % 0 mm 91 W/m2
18:14 11.6 °C 5 °C 1022.2 hPa West 25.7 km/h 40.2 km/h 64 % 0 mm 86 W/m2
18:19 11.5 °C 5.2 °C 1022.2 hPa West 24.1 km/h 40.2 km/h 65 % 0 mm 88 W/m2
18:24 11.4 °C 5.3 °C 1022.2 hPa West 19.3 km/h 32.2 km/h 66 % 0 mm 86 W/m2
18:29 11.4 °C 5.3 °C 1022.2 hPa West 20.9 km/h 35.4 km/h 66 % 0 mm 77 W/m2
18:34 11.4 °C 5.3 °C 1022.2 hPa West 20.9 km/h 35.4 km/h 66 % 0 mm 76 W/m2
18:39 11.3 °C 5.2 °C 1022.2 hPa West 20.9 km/h 37 km/h 66 % 0 mm 62 W/m2
18:44 11.3 °C 5.4 °C 1021.9 hPa West 20.9 km/h 37 km/h 67 % 0 mm 47 W/m2
18:49 11.2 °C 5.5 °C 1021.9 hPa West 19.3 km/h 29 km/h 68 % 0 mm 42 W/m2
18:54 11.1 °C 5.4 °C 1021.9 hPa West 19.3 km/h 32.2 km/h 68 % 0 mm 40 W/m2
18:59 11 °C 5.3 °C 1021.9 hPa West 17.7 km/h 32.2 km/h 68 % 0 mm 40 W/m2
19:04 10.9 °C 5.2 °C 1021.9 hPa West 16.1 km/h 29 km/h 68 % 0 mm 40 W/m2
19:09 10.9 °C 5.4 °C 1021.9 hPa West 19.3 km/h 30.6 km/h 69 % 0 mm 40 W/m2
19:14 10.8 °C 5.3 °C 1021.9 hPa West 19.3 km/h 30.6 km/h 69 % 0 mm 42 W/m2
19:19 10.8 °C 5.3 °C 1021.9 hPa West 17.7 km/h 29 km/h 69 % 0 mm 33 W/m2
19:20 10.8 °C 5.3 °C 1021.9 hPa West 17.7 km/h 29 km/h 69 % 0 mm 35 W/m2
19:25 10.7 °C 5.4 °C 1021.9 hPa West 16.1 km/h 29 km/h 70 % 0 mm 46 W/m2
19:26 10.7 °C 5.4 °C 1021.9 hPa West 16.1 km/h 29 km/h 70 % 0 mm 44 W/m2
19:31 10.7 °C 5.2 °C 1021.9 hPa West 16.1 km/h 29 km/h 69 % 0 mm 25 W/m2
19:36 10.7 °C 5.2 °C 1021.9 hPa West 16.1 km/h 25.7 km/h 69 % 0 mm 18 W/m2
19:41 10.6 °C 5.3 °C 1021.9 hPa West 14.5 km/h 25.7 km/h 70 % 0 mm 16 W/m2
19:46 10.5 °C 5.3 °C 1021.9 hPa West 12.9 km/h 22.5 km/h 70 % 0 mm 12 W/m2
19:51 10.4 °C 5.2 °C 1021.6 hPa West 14.5 km/h 25.7 km/h 70 % 0 mm 9 W/m2
19:56 10.4 °C 5.2 °C 1021.6 hPa West 14.5 km/h 25.7 km/h 70 % 0 mm 5 W/m2
20:01 10.3 °C 5.1 °C 1021.6 hPa West 14.5 km/h 24.1 km/h 70 % 0 mm 0 W/m2
20:06 10.3 °C 5.1 °C 1021.6 hPa West 17.7 km/h 37 km/h 70 % 0 mm 0 W/m2
20:11 10.3 °C 4.8 °C 1021.6 hPa West 20.9 km/h 40.2 km/h 69 % 0 mm 0 W/m2
20:16 10.2 °C 4.8 °C 1021.6 hPa West 22.5 km/h 40.2 km/h 69 % 0 mm 0 W/m2
20:22 10.2 °C 4.8 °C 1021.6 hPa West 22.5 km/h 35.4 km/h 69 % 0 mm 0 W/m2
20:27 10.2 °C 4.8 °C 1021.6 hPa West 17.7 km/h 35.4 km/h 69 % 0 mm 0 W/m2
20:32 10.2 °C 4.9 °C 1021.6 hPa West 16.1 km/h 29 km/h 70 % 0 mm 0 W/m2
20:37 10.1 °C 4.9 °C 1021.6 hPa West 16.1 km/h 33.8 km/h 70 % 0 mm 0 W/m2
20:42 10.1 °C 5.1 °C 1021.6 hPa West 20.9 km/h 41.8 km/h 71 % 0 mm 0 W/m2
20:47 10.1 °C 5.1 °C 1021.6 hPa West 22.5 km/h 41.8 km/h 71 % 0 mm 0 W/m2
20:52 10.1 °C 5.1 °C 1021.6 hPa West 20.9 km/h 37 km/h 71 % 0 mm 0 W/m2
20:57 10 °C 5.2 °C 1021.6 hPa West 20.9 km/h 40.2 km/h 72 % 0 mm 0 W/m2
21:02 10.1 °C 5.3 °C 1021.6 hPa West 22.5 km/h 40.2 km/h 72 % 0 mm 0 W/m2
21:07 10 °C 5.2 °C 1021.6 hPa West 22.5 km/h 40.2 km/h 72 % 0 mm 0 W/m2
21:12 10 °C 5.2 °C 1021.6 hPa West 24.1 km/h 40.2 km/h 72 % 0 mm 0 W/m2
21:17 10 °C 5.2 °C 1021.6 hPa West 24.1 km/h 40.2 km/h 72 % 0 mm 0 W/m2
21:22 10 °C 5.2 °C 1021.6 hPa West 20.9 km/h 35.4 km/h 72 % 0 mm 0 W/m2
21:27 10 °C 5.2 °C 1021.6 hPa West 19.3 km/h 37 km/h 72 % 0 mm 0 W/m2
21:32 10 °C 5.2 °C 1021.6 hPa West 17.7 km/h 37 km/h 72 % 0 mm 0 W/m2
21:37 9.9 °C 5.1 °C 1021.6 hPa West 17.7 km/h 32.2 km/h 72 % 0 mm 0 W/m2
21:42 9.9 °C 5.1 °C 1021.6 hPa West 20.9 km/h 33.8 km/h 72 % 0 mm 0 W/m2
21:47 9.9 °C 5.1 °C 1021.6 hPa West 17.7 km/h 33.8 km/h 72 % 0 mm 0 W/m2
21:52 9.9 °C 5.3 °C 1021.6 hPa West 16.1 km/h 29 km/h 73 % 0 mm 0 W/m2
21:57 9.9 °C 5.3 °C 1021.6 hPa West 17.7 km/h 29 km/h 73 % 0 mm 0 W/m2
22:02 9.9 °C 5.3 °C 1021.6 hPa West 16.1 km/h 29 km/h 73 % 0 mm 0 W/m2
22:07 9.9 °C 5.3 °C 1021.6 hPa West 16.1 km/h 25.7 km/h 73 % 0 mm 0 W/m2
22:12 9.9 °C 5.5 °C 1021.6 hPa West 16.1 km/h 25.7 km/h 74 % 0 mm 0 W/m2
22:17 9.8 °C 5.4 °C 1021.6 hPa West 16.1 km/h 30.6 km/h 74 % 0 mm 0 W/m2
22:22 9.8 °C 5.4 °C 1021.2 hPa West 16.1 km/h 32.2 km/h 74 % 0 mm 0 W/m2
22:27 9.8 °C 5.6 °C 1021.2 hPa West 17.7 km/h 32.2 km/h 75 % 0 mm 0 W/m2
22:32 9.8 °C 5.6 °C 1021.2 hPa West 16.1 km/h 35.4 km/h 75 % 0 mm 0 W/m2
22:37 9.8 °C 5.6 °C 1021.2 hPa West 17.7 km/h 35.4 km/h 75 % 0 mm 0 W/m2
22:42 9.8 °C 5.6 °C 1020.9 hPa West 16.1 km/h 33.8 km/h 75 % 0 mm 0 W/m2
22:47 9.7 °C 5.7 °C 1020.9 hPa West 12.9 km/h 22.5 km/h 76 % 0 mm 0 W/m2
22:52 9.7 °C 5.7 °C 1020.9 hPa West 14.5 km/h 25.7 km/h 76 % 0 mm 0 W/m2
22:57 9.8 °C 5.8 °C 1020.9 hPa WSW 14.5 km/h 25.7 km/h 76 % 0 mm 0 W/m2
23:02 9.8 °C 5.8 °C 1020.9 hPa WSW 12.9 km/h 22.5 km/h 76 % 0 mm 0 W/m2
23:07 9.8 °C 5.8 °C 1020.5 hPa WSW 12.9 km/h 24.1 km/h 76 % 0 mm 0 W/m2
23:12 9.8 °C 5.8 °C 1020.5 hPa WSW 11.3 km/h 24.1 km/h 76 % 0 mm 0 W/m2
23:17 9.8 °C 5.8 °C 1020.5 hPa WSW 11.3 km/h 29 km/h 76 % 0 mm 0 W/m2
23:22 9.8 °C 5.8 °C 1020.5 hPa WSW 12.9 km/h 29 km/h 76 % 0 mm 0 W/m2
23:27 9.8 °C 5.8 °C 1020.2 hPa SW 9.7 km/h 25.7 km/h 76 % 0 mm 0 W/m2
23:32 9.8 °C 5.8 °C 1020.2 hPa WSW 9.7 km/h 19.3 km/h 76 % 0 mm 0 W/m2
23:37 9.7 °C 5.8 °C 1020.2 hPa SW 9.7 km/h 19.3 km/h 77 % 0 mm 0 W/m2
23:42 9.7 °C 5.8 °C 1019.9 hPa SW 9.7 km/h 17.7 km/h 77 % 0 mm 0 W/m2
23:47 9.7 °C 5.8 °C 1019.9 hPa SW 9.7 km/h 17.7 km/h 77 % 0 mm 0 W/m2
23:53 9.6 °C 5.8 °C 1019.9 hPa SW 9.7 km/h 17.7 km/h 77 % 0 mm 0 W/m2
23:58 9.6 °C 5.9 °C 1019.9 hPa WSW 11.3 km/h 30.6 km/h 78 % 0 mm 0 W/m2
Delerius-Weather
Compliments of Weather Underground - 2.25 mb

Data updates at regular intervals.